Time;durP1;ratioP1;P1;durP2;ratioP2;P2;SDS_P1;SDS_P2;PMS_P1;PMS_P2;Temp;Humidity;BMP_temperature;BMP_pressure;BME280_temperature;BME280_humidity;BME280_pressure;Samples;Min_cycle;Max_cycle;Signal;HPM_P1;HPM_P2
2024/03/19 00:00:14;;;;;;;20.30;8.60;;;;;;;;;;5070975;28;20203;-72
2024/03/19 00:02:40;;;;;;;15.88;8.20;;;;;;;;;;5066150;28;20180;-72
2024/03/19 00:05:06;;;;;;;17.75;8.50;;;;;;;;;;5070741;28;20180;-73
2024/03/19 00:07:32;;;;;;;21.50;8.82;;;;;;;;;;5070641;28;20189;-73
2024/03/19 00:09:57;;;;;;;20.02;8.73;;;;;;;;;;5067928;28;20633;-72
2024/03/19 00:12:24;;;;;;;18.05;8.40;;;;;;;;;;5073285;28;20253;-72
2024/03/19 00:14:50;;;;;;;21.85;9.27;;;;;;;;;;5069849;28;20631;-73
2024/03/19 00:17:16;;;;;;;20.95;9.07;;;;;;;;;;5057618;28;20684;-72
2024/03/19 00:19:42;;;;;;;19.55;8.55;;;;;;;;;;5069778;28;20205;-73
2024/03/19 00:22:08;;;;;;;16.20;9.50;;;;;;;;;;5067232;28;20206;-73
2024/03/19 00:24:33;;;;;;;18.42;8.98;;;;;;;;;;5077253;28;20188;-72
2024/03/19 00:27:01;;;;;;;18.92;8.50;;;;;;;;;;5069074;28;20206;-72
2024/03/19 00:29:27;;;;;;;16.05;8.95;;;;;;;;;;5074781;28;20629;-72
2024/03/19 00:31:53;;;;;;;17.13;8.75;;;;;;;;;;5061506;28;20208;-73
2024/03/19 00:34:18;;;;;;;21.58;10.13;;;;;;;;;;5075695;28;20262;-72
2024/03/19 00:36:44;;;;;;;22.85;9.40;;;;;;;;;;5075778;28;20230;-72
2024/03/19 00:39:10;;;;;;;21.95;9.63;;;;;;;;;;5073365;28;20658;-73
2024/03/19 00:41:37;;;;;;;21.95;9.95;;;;;;;;;;5064976;28;20228;-73
2024/03/19 00:44:04;;;;;;;22.15;9.57;;;;;;;;;;5075004;28;20551;-73
2024/03/19 00:46:30;;;;;;;19.98;9.73;;;;;;;;;;5083500;28;20218;-73
2024/03/19 00:48:55;;;;;;;17.35;9.60;;;;;;;;;;5074494;28;20678;-73
2024/03/19 00:51:21;;;;;;;19.10;10.27;;;;;;;;;;5076609;28;20192;-73
2024/03/19 00:53:46;;;;;;;24.42;11.05;;;;;;;;;;5070838;28;20238;-73
2024/03/19 00:56:12;;;;;;;20.15;10.50;;;;;;;;;;5081070;28;20199;-74
2024/03/19 00:58:37;;;;;;;24.48;10.65;;;;;;;;;;5080145;28;20184;-73
2024/03/19 01:01:06;;;;;;;23.63;10.35;;;;;;;;;;5051761;28;20642;-73
2024/03/19 01:03:33;;;;;;;18.45;9.68;;;;;;;;;;5074967;28;20212;-74
2024/03/19 01:06:00;;;;;;;19.08;9.38;;;;;;;;;;5072821;28;20762;-74
2024/03/19 01:08:26;;;;;;;18.38;9.07;;;;;;;;;;5078668;28;20204;-74
2024/03/19 01:10:51;;;;;;;16.10;8.18;;;;;;;;;;5082018;28;20196;-73
2024/03/19 01:13:16;;;;;;;20.00;9.10;;;;;;;;;;5075677;28;20193;-73
2024/03/19 01:15:42;;;;;;;25.30;9.63;;;;;;;;;;5069294;28;20272;-73
2024/03/19 01:18:08;;;;;;;21.58;9.75;;;;;;;;;;5078333;28;20314;-73
2024/03/19 01:20:33;;;;;;;21.73;9.63;;;;;;;;;;5068991;28;20238;-73
2024/03/19 01:22:59;;;;;;;19.15;8.27;;;;;;;;;;5065684;28;20201;-72
2024/03/19 01:25:25;;;;;;;18.52;8.80;;;;;;;;;;5067876;28;20208;-73
2024/03/19 01:27:52;;;;;;;16.92;9.38;;;;;;;;;;5068210;28;20586;-73
2024/03/19 01:30:17;;;;;;;15.93;8.73;;;;;;;;;;5071303;28;20221;-73
2024/03/19 01:32:43;;;;;;;20.48;9.13;;;;;;;;;;5070573;28;20181;-73
2024/03/19 01:35:09;;;;;;;19.70;9.48;;;;;;;;;;5062186;28;20321;-74
2024/03/19 01:37:34;;;;;;;21.45;9.95;;;;;;;;;;5069704;28;20520;-73
2024/03/19 01:40:01;;;;;;;26.17;11.55;;;;;;;;;;5058092;28;20256;-73
2024/03/19 01:42:27;;;;;;;21.23;11.02;;;;;;;;;;5073589;28;20671;-73
2024/03/19 01:45:09;;;;;;;19.25;10.18;;;;;;;;;;5055997;28;20200;-73
2024/03/19 01:47:35;;;;;;;24.00;10.98;;;;;;;;;;5071546;28;20263;-73
2024/03/19 01:50:05;;;;;;;21.08;10.25;;;;;;;;;;5064076;28;20604;-73
2024/03/19 01:52:30;;;;;;;22.50;11.88;;;;;;;;;;5074568;28;20659;-73
2024/03/19 01:54:56;;;;;;;21.70;10.27;;;;;;;;;;5068068;28;20223;-73
2024/03/19 01:57:21;;;;;;;25.35;10.68;;;;;;;;;;5069047;28;20231;-73
2024/03/19 01:59:47;;;;;;;17.17;9.32;;;;;;;;;;5061514;28;20188;-73
2024/03/19 02:02:30;;;;;;;20.67;10.07;;;;;;;;;;5076251;28;20218;-73
2024/03/19 02:04:56;;;;;;;21.23;10.98;;;;;;;;;;5064870;28;20473;-73
2024/03/19 02:07:21;;;;;;;22.75;9.65;;;;;;;;;;5066987;28;20705;-74
2024/03/19 02:09:49;;;;;;;22.00;9.13;;;;;;;;;;5064094;28;20294;-73
2024/03/19 02:12:15;;;;;;;20.27;9.82;;;;;;;;;;5073515;28;20181;-74
2024/03/19 02:14:40;;;;;;;18.42;8.93;;;;;;;;;;5071417;28;20720;-73
2024/03/19 02:17:06;;;;;;;19.73;10.30;;;;;;;;;;5075079;28;20268;-73
2024/03/19 02:19:33;;;;;;;20.98;10.55;;;;;;;;;;5070614;28;20541;-74
2024/03/19 02:21:59;;;;;;;23.05;10.65;;;;;;;;;;5069140;28;20318;-74
2024/03/19 02:24:25;;;;;;;23.52;10.80;;;;;;;;;;5065585;28;20269;-73
2024/03/19 02:26:50;;;;;;;24.95;10.57;;;;;;;;;;5053516;28;20197;-74
2024/03/19 02:29:16;;;;;;;22.45;10.30;;;;;;;;;;5062130;28;20196;-74
2024/03/19 02:31:41;;;;;;;20.70;11.20;;;;;;;;;;5070619;28;20678;-74
2024/03/19 02:34:06;;;;;;;18.27;11.30;;;;;;;;;;5069689;28;20207;-74
2024/03/19 02:36:32;;;;;;;22.08;11.73;;;;;;;;;;5058536;28;20274;-74
2024/03/19 02:38:57;;;;;;;22.67;11.95;;;;;;;;;;5070800;28;20267;-74
2024/03/19 02:41:23;;;;;;;21.00;11.18;;;;;;;;;;5066942;28;20193;-74
2024/03/19 02:43:48;;;;;;;22.92;11.57;;;;;;;;;;5061029;28;20185;-73
2024/03/19 02:46:14;;;;;;;25.02;11.60;;;;;;;;;;5069473;28;20181;-73
2024/03/19 02:48:39;;;;;;;24.05;12.07;;;;;;;;;;5065697;28;20211;-73
2024/03/19 02:51:05;;;;;;;22.52;11.55;;;;;;;;;;5065469;28;20682;-73
2024/03/19 02:53:30;;;;;;;22.23;11.68;;;;;;;;;;5064370;28;20693;-73
2024/03/19 02:55:56;;;;;;;23.50;12.75;;;;;;;;;;5043455;28;20185;-73
2024/03/19 02:58:21;;;;;;;22.83;11.90;;;;;;;;;;5064835;28;20189;-74
2024/03/19 03:00:47;;;;;;;27.25;11.75;;;;;;;;;;5070574;28;20264;-74
2024/03/19 03:03:13;;;;;;;22.83;12.10;;;;;;;;;;5062905;28;20200;-73
2024/03/19 03:05:38;;;;;;;25.92;13.10;;;;;;;;;;5069509;28;20192;-74
2024/03/19 03:08:05;;;;;;;28.05;13.93;;;;;;;;;;5065838;28;20289;-73
2024/03/19 03:10:31;;;;;;;24.38;13.07;;;;;;;;;;5058650;28;20616;-74
2024/03/19 03:12:56;;;;;;;23.02;12.65;;;;;;;;;;5062633;28;20486;-74
2024/03/19 03:15:22;;;;;;;26.65;13.57;;;;;;;;;;5069709;28;20216;-73
2024/03/19 03:17:48;;;;;;;17.92;11.13;;;;;;;;;;5068984;28;20731;-73
2024/03/19 03:20:14;;;;;;;21.23;12.05;;;;;;;;;;5065238;28;20216;-74
2024/03/19 03:22:40;;;;;;;26.27;12.85;;;;;;;;;;5074901;28;20238;-73
2024/03/19 03:25:11;;;;;;;26.95;12.82;;;;;;;;;;5064017;28;20649;-73
2024/03/19 03:27:39;;;;;;;25.65;12.85;;;;;;;;;;5060631;28;20667;-73
2024/03/19 03:30:08;;;;;;;25.85;12.98;;;;;;;;;;5057773;28;20189;-73
2024/03/19 03:32:44;;;;;;;28.05;14.07;;;;;;;;;;5062405;28;20518;-73
2024/03/19 03:35:09;;;;;;;28.17;13.07;;;;;;;;;;5064129;28;20308;-73
2024/03/19 03:37:35;;;;;;;25.95;13.73;;;;;;;;;;5064528;28;20302;-73
2024/03/19 03:40:07;;;;;;;28.02;13.23;;;;;;;;;;5059265;28;20521;-73
2024/03/19 03:42:33;;;;;;;23.73;13.38;;;;;;;;;;5087365;28;20549;-73
2024/03/19 03:44:58;;;;;;;23.48;13.35;;;;;;;;;;5063584;28;20208;-73
2024/03/19 03:47:24;;;;;;;21.90;13.93;;;;;;;;;;5065783;28;20197;-73
2024/03/19 03:49:50;;;;;;;26.95;13.25;;;;;;;;;;5062357;28;20190;-73
2024/03/19 03:52:16;;;;;;;25.65;14.05;;;;;;;;;;5067188;28;20245;-73
2024/03/19 03:54:41;;;;;;;32.22;14.88;;;;;;;;;;5067146;28;20204;-73
2024/03/19 03:57:07;;;;;;;31.40;15.07;;;;;;;;;;5068714;28;20435;-73
2024/03/19 03:59:32;;;;;;;28.83;14.57;;;;;;;;;;5065085;28;20526;-73
2024/03/19 04:01:58;;;;;;;31.50;15.10;;;;;;;;;;5057732;28;20661;-73
2024/03/19 04:04:23;;;;;;;28.85;14.07;;;;;;;;;;5072093;28;20239;-73
2024/03/19 04:06:49;;;;;;;27.38;14.48;;;;;;;;;;5061942;28;20188;-73
2024/03/19 04:09:15;;;;;;;31.65;15.18;;;;;;;;;;5070049;28;20184;-73
2024/03/19 04:11:41;;;;;;;28.98;15.45;;;;;;;;;;5077178;28;20202;-73
2024/03/19 04:14:06;;;;;;;28.33;15.25;;;;;;;;;;5074640;28;20203;-73
2024/03/19 04:16:31;;;;;;;32.92;16.75;;;;;;;;;;5077441;28;20233;-73
2024/03/19 04:18:57;;;;;;;33.80;17.70;;;;;;;;;;5074266;28;20216;-73
2024/03/19 04:21:23;;;;;;;31.13;16.80;;;;;;;;;;5077531;28;20262;-73
2024/03/19 04:23:48;;;;;;;28.13;15.50;;;;;;;;;;5058271;28;20220;-73
2024/03/19 04:26:13;;;;;;;26.63;15.45;;;;;;;;;;5070172;28;20188;-73
2024/03/19 04:28:39;;;;;;;28.27;14.40;;;;;;;;;;5066140;28;20516;-73
2024/03/19 04:31:05;;;;;;;28.75;15.38;;;;;;;;;;5051517;28;20203;-73
2024/03/19 04:33:31;;;;;;;26.15;14.98;;;;;;;;;;5058577;28;20193;-74
2024/03/19 04:35:56;;;;;;;28.63;15.15;;;;;;;;;;5082679;28;20265;-74
2024/03/19 04:38:21;;;;;;;31.33;16.25;;;;;;;;;;5064681;28;20189;-74
2024/03/19 04:40:47;;;;;;;32.95;16.83;;;;;;;;;;5054326;28;20204;-73
2024/03/19 04:43:12;;;;;;;26.63;15.38;;;;;;;;;;5072972;28;20244;-73
2024/03/19 04:45:38;;;;;;;29.17;15.52;;;;;;;;;;5080888;28;20196;-75
2024/03/19 04:48:03;;;;;;;33.17;16.08;;;;;;;;;;5074180;28;20271;-73
2024/03/19 04:50:30;;;;;;;32.38;16.55;;;;;;;;;;5077774;28;20284;-74
2024/03/19 04:52:55;;;;;;;34.10;17.23;;;;;;;;;;5079548;28;20291;-73
2024/03/19 04:55:21;;;;;;;31.58;17.20;;;;;;;;;;5082780;28;20204;-74
2024/03/19 04:57:46;;;;;;;40.63;19.85;;;;;;;;;;5071545;28;20572;-74
2024/03/19 05:00:18;;;;;;;38.03;19.52;;;;;;;;;;5053139;28;20232;-74
2024/03/19 05:02:47;;;;;;;48.67;22.27;;;;;;;;;;5073399;28;20601;-73
2024/03/19 05:05:13;;;;;;;48.35;23.33;;;;;;;;;;5052633;28;20193;-73
2024/03/19 05:07:41;;;;;;;53.42;26.25;;;;;;;;;;5076850;28;20192;-73
2024/03/19 05:10:08;;;;;;;50.95;26.55;;;;;;;;;;5068772;28;20177;-73
2024/03/19 05:12:33;;;;;;;52.00;26.98;;;;;;;;;;5066713;28;20267;-74
2024/03/19 05:14:59;;;;;;;53.70;26.58;;;;;;;;;;5066690;28;20279;-74
2024/03/19 05:17:24;;;;;;;54.20;28.15;;;;;;;;;;5067640;28;20660;-74
2024/03/19 05:19:50;;;;;;;53.75;25.83;;;;;;;;;;5069084;28;20228;-74
2024/03/19 05:22:15;;;;;;;49.13;25.63;;;;;;;;;;5074680;28;20545;-74
2024/03/19 05:24:41;;;;;;;53.88;25.85;;;;;;;;;;5068739;28;20555;-73
2024/03/19 05:27:08;;;;;;;50.92;25.20;;;;;;;;;;5062319;28;20194;-73
2024/03/19 05:29:33;;;;;;;46.55;25.02;;;;;;;;;;5083512;28;20260;-74
2024/03/19 05:31:58;;;;;;;44.25;23.33;;;;;;;;;;5066559;28;20625;-74
2024/03/19 05:34:24;;;;;;;45.70;24.60;;;;;;;;;;5073536;28;20226;-74
2024/03/19 05:36:49;;;;;;;40.50;22.83;;;;;;;;;;5075715;28;20688;-74
2024/03/19 05:39:15;;;;;;;41.47;23.33;;;;;;;;;;5074988;28;20192;-74
2024/03/19 05:41:40;;;;;;;48.67;24.02;;;;;;;;;;5076720;28;20189;-74
2024/03/19 05:44:07;;;;;;;47.67;23.80;;;;;;;;;;5075355;28;20267;-73
2024/03/19 05:46:33;;;;;;;47.03;24.75;;;;;;;;;;5071503;28;20227;-73
2024/03/19 05:48:58;;;;;;;42.35;22.75;;;;;;;;;;5062966;28;20211;-73
2024/03/19 05:51:24;;;;;;;40.03;21.63;;;;;;;;;;5070146;28;20261;-73
2024/03/19 05:53:49;;;;;;;44.30;22.27;;;;;;;;;;5068490;28;20257;-73
2024/03/19 05:56:14;;;;;;;44.25;22.13;;;;;;;;;;5078566;28;20295;-73
2024/03/19 05:58:40;;;;;;;40.95;21.35;;;;;;;;;;5076080;28;20191;-73
2024/03/19 06:01:05;;;;;;;40.97;21.85;;;;;;;;;;5073452;28;20195;-73
2024/03/19 06:03:34;;;;;;;43.70;22.90;;;;;;;;;;5078217;28;20268;-73
2024/03/19 06:06:08;;;;;;;43.90;20.90;;;;;;;;;;5077193;28;20200;-73
2024/03/19 06:08:38;;;;;;;38.90;20.58;;;;;;;;;;5076278;28;20180;-73
2024/03/19 06:11:04;;;;;;;40.72;21.17;;;;;;;;;;5077353;28;20188;-73
2024/03/19 06:13:30;;;;;;;35.80;21.25;;;;;;;;;;5072132;28;20185;-73
2024/03/19 06:15:55;;;;;;;39.95;20.55;;;;;;;;;;5064185;28;20648;-74
2024/03/19 06:18:21;;;;;;;43.72;21.58;;;;;;;;;;5058007;28;20208;-73
2024/03/19 06:20:46;;;;;;;36.47;18.95;;;;;;;;;;5056496;28;20266;-73
2024/03/19 06:23:12;;;;;;;42.25;20.85;;;;;;;;;;5067367;28;20262;-73
2024/03/19 06:25:38;;;;;;;41.33;20.20;;;;;;;;;;5068639;28;20219;-73
2024/03/19 06:28:04;;;;;;;38.60;20.40;;;;;;;;;;5073347;28;20500;-73
2024/03/19 06:30:31;;;;;;;38.70;20.10;;;;;;;;;;5068786;28;20189;-72
2024/03/19 06:32:57;;;;;;;42.33;21.58;;;;;;;;;;5074284;28;20199;-72
2024/03/19 06:35:23;;;;;;;37.65;20.00;;;;;;;;;;5075083;28;20235;-72
2024/03/19 06:37:48;;;;;;;40.95;20.10;;;;;;;;;;5057597;28;20598;-72
2024/03/19 06:40:13;;;;;;;33.25;18.70;;;;;;;;;;5065394;28;20668;-73
2024/03/19 06:42:39;;;;;;;39.45;20.48;;;;;;;;;;5067850;28;20185;-73
2024/03/19 06:45:08;;;;;;;41.38;20.73;;;;;;;;;;5075192;28;20175;-73
2024/03/19 06:47:34;;;;;;;38.40;22.60;;;;;;;;;;5074692;28;20192;-74
2024/03/19 06:49:59;;;;;;;40.20;21.88;;;;;;;;;;5053047;28;20200;-74
2024/03/19 06:52:28;;;;;;;35.00;20.55;;;;;;;;;;5058311;28;20184;-75
2024/03/19 06:54:53;;;;;;;34.22;21.30;;;;;;;;;;5053515;28;20229;-74
2024/03/19 06:57:19;;;;;;;42.85;20.75;;;;;;;;;;5058333;28;20189;-74
2024/03/19 06:59:44;;;;;;;37.30;20.63;;;;;;;;;;5064710;28;20192;-73
2024/03/19 07:02:13;;;;;;;34.40;20.58;;;;;;;;;;5076999;28;20473;-73
2024/03/19 07:04:39;;;;;;;38.13;19.90;;;;;;;;;;5070612;28;20195;-73
2024/03/19 07:07:04;;;;;;;34.75;20.00;;;;;;;;;;5071937;28;20184;-73
2024/03/19 07:09:31;;;;;;;37.97;20.77;;;;;;;;;;5058169;28;20287;-73
2024/03/19 07:11:58;;;;;;;39.33;21.45;;;;;;;;;;5064078;28;20188;-73
2024/03/19 07:14:24;;;;;;;33.92;17.58;;;;;;;;;;5069920;28;20215;-73
2024/03/19 07:16:49;;;;;;;36.13;19.75;;;;;;;;;;5064514;28;20189;-72
2024/03/19 07:19:15;;;;;;;34.78;19.90;;;;;;;;;;5076185;28;20262;-74
2024/03/19 07:21:40;;;;;;;37.85;19.98;;;;;;;;;;5066469;28;20239;-73
2024/03/19 07:24:06;;;;;;;34.35;18.55;;;;;;;;;;5063960;28;20188;-73
2024/03/19 07:26:31;;;;;;;32.03;18.98;;;;;;;;;;5073497;28;20221;-74
2024/03/19 07:28:57;;;;;;;29.42;18.15;;;;;;;;;;5075567;28;20278;-73
2024/03/19 07:31:22;;;;;;;29.38;18.38;;;;;;;;;;5070242;28;20272;-73
2024/03/19 07:33:48;;;;;;;29.45;17.92;;;;;;;;;;5063824;28;20212;-74
2024/03/19 07:36:13;;;;;;;37.30;18.63;;;;;;;;;;5067128;28;20232;-73
2024/03/19 07:38:40;;;;;;;29.00;17.35;;;;;;;;;;5072993;28;20187;-73
2024/03/19 07:41:07;;;;;;;32.97;18.15;;;;;;;;;;5069788;28;20189;-74
2024/03/19 07:43:33;;;;;;;31.15;17.35;;;;;;;;;;5068565;28;20554;-73
2024/03/19 07:45:58;;;;;;;32.70;17.88;;;;;;;;;;5061638;28;20221;-73
2024/03/19 07:48:24;;;;;;;35.13;16.73;;;;;;;;;;5064703;28;20192;-73
2024/03/19 07:50:50;;;;;;;26.08;15.52;;;;;;;;;;5059959;28;20551;-73
2024/03/19 07:53:16;;;;;;;30.15;16.27;;;;;;;;;;5053546;28;20192;-73
2024/03/19 07:55:41;;;;;;;26.95;16.38;;;;;;;;;;5060918;28;20217;-73
2024/03/19 07:58:07;;;;;;;27.63;15.73;;;;;;;;;;5061593;28;20224;-73
2024/03/19 08:00:33;;;;;;;25.25;15.77;;;;;;;;;;5064181;28;20193;-74
2024/03/19 08:02:59;;;;;;;26.13;15.52;;;;;;;;;;5067453;28;20309;-73
2024/03/19 08:05:24;;;;;;;27.63;15.35;;;;;;;;;;5063392;28;20224;-73
2024/03/19 08:07:50;;;;;;;28.45;15.15;;;;;;;;;;5063596;28;20188;-73
2024/03/19 08:10:15;;;;;;;26.95;14.75;;;;;;;;;;5066676;28;20192;-73
2024/03/19 08:12:41;;;;;;;22.77;13.43;;;;;;;;;;5069592;28;20188;-73
2024/03/19 08:15:07;;;;;;;23.80;14.00;;;;;;;;;;5068294;28;20263;-73
2024/03/19 08:17:32;;;;;;;24.30;13.60;;;;;;;;;;5075878;28;20189;-72
2024/03/19 08:19:59;;;;;;;25.23;13.68;;;;;;;;;;5078741;28;20654;-73
2024/03/19 08:22:24;;;;;;;23.52;13.48;;;;;;;;;;5068475;28;20203;-72
2024/03/19 08:24:52;;;;;;;22.67;12.75;;;;;;;;;;5067742;28;20496;-73
2024/03/19 08:27:17;;;;;;;21.38;12.68;;;;;;;;;;5068374;28;20228;-73
2024/03/19 08:29:43;;;;;;;22.73;12.60;;;;;;;;;;5078885;28;20204;-72
2024/03/19 08:32:08;;;;;;;21.60;12.60;;;;;;;;;;5069289;28;20211;-73
2024/03/19 08:34:34;;;;;;;24.50;13.68;;;;;;;;;;5069705;28;20542;-73
2024/03/19 08:36:59;;;;;;;20.48;12.98;;;;;;;;;;5064839;28;20560;-72
2024/03/19 08:39:25;;;;;;;19.85;11.65;;;;;;;;;;5062610;28;20223;-72
2024/03/19 08:41:53;;;;;;;20.52;12.68;;;;;;;;;;5057864;28;20223;-72
2024/03/19 08:44:21;;;;;;;21.02;11.90;;;;;;;;;;5061468;28;20268;-72
2024/03/19 08:46:47;;;;;;;21.85;11.85;;;;;;;;;;5063986;28;20242;-73
2024/03/19 08:49:16;;;;;;;19.42;11.80;;;;;;;;;;5064246;28;20279;-73
2024/03/19 08:51:42;;;;;;;17.85;11.13;;;;;;;;;;5059744;28;20185;-73
2024/03/19 08:54:08;;;;;;;21.17;11.75;;;;;;;;;;5080388;28;20234;-73
2024/03/19 08:56:35;;;;;;;20.70;11.38;;;;;;;;;;5082398;28;20496;-72
2024/03/19 08:59:01;;;;;;;19.88;11.52;;;;;;;;;;5065714;28;20181;-72
2024/03/19 09:01:26;;;;;;;17.20;11.13;;;;;;;;;;5059451;28;20203;-73
2024/03/19 09:03:52;;;;;;;20.02;11.48;;;;;;;;;;5060239;28;20236;-73
2024/03/19 09:06:18;;;;;;;19.35;10.63;;;;;;;;;;5061958;28;20231;-73
2024/03/19 09:08:44;;;;;;;16.48;10.95;;;;;;;;;;5054405;28;20219;-72
2024/03/19 09:11:10;;;;;;;17.38;11.38;;;;;;;;;;5055255;28;20217;-72
2024/03/19 09:13:36;;;;;;;18.40;10.50;;;;;;;;;;5081203;28;20645;-72
2024/03/19 09:16:01;;;;;;;16.92;10.50;;;;;;;;;;5058568;28;20213;-73
2024/03/19 09:18:27;;;;;;;18.92;10.25;;;;;;;;;;5064088;28;20668;-74
2024/03/19 09:20:52;;;;;;;14.60;9.70;;;;;;;;;;5064460;28;20277;-72
2024/03/19 09:23:17;;;;;;;18.35;10.70;;;;;;;;;;5065504;28;20219;-73
2024/03/19 09:25:43;;;;;;;18.58;11.02;;;;;;;;;;5071937;28;20184;-73
2024/03/19 09:28:08;;;;;;;20.30;10.75;;;;;;;;;;5070494;28;20189;-73
2024/03/19 09:30:34;;;;;;;19.00;10.98;;;;;;;;;;5066117;28;20180;-73
2024/03/19 09:32:59;;;;;;;19.08;10.10;;;;;;;;;;5069990;28;20185;-72
2024/03/19 09:35:25;;;;;;;16.20;10.18;;;;;;;;;;5070038;28;20323;-73
2024/03/19 09:37:51;;;;;;;18.52;9.75;;;;;;;;;;5070824;28;20185;-73
2024/03/19 09:40:17;;;;;;;16.55;10.38;;;;;;;;;;5071919;28;20648;-72
2024/03/19 09:42:42;;;;;;;15.75;9.43;;;;;;;;;;5070779;28;20196;-72
2024/03/19 09:45:26;;;;;;;14.65;9.00;;;;;;;;;;5064678;28;20661;-72
2024/03/19 09:47:52;;;;;;;13.05;8.45;;;;;;;;;;5047414;28;20628;-72
2024/03/19 09:50:18;;;;;;;11.30;8.00;;;;;;;;;;5050473;28;20282;-73
2024/03/19 09:52:44;;;;;;;11.95;8.13;;;;;;;;;;5064648;28;20181;-72
2024/03/19 09:55:17;;;;;;;16.98;8.02;;;;;;;;;;5059245;28;20351;-73
2024/03/19 09:57:45;;;;;;;12.60;7.13;;;;;;;;;;5056436;28;20189;-73
2024/03/19 10:00:23;;;;;;;11.07;7.18;;;;;;;;;;5064767;28;20213;-73
2024/03/19 10:02:49;;;;;;;12.25;7.05;;;;;;;;;;5063562;28;20216;-73
2024/03/19 10:05:15;;;;;;;14.32;7.25;;;;;;;;;;5071616;28;20192;-72
2024/03/19 10:07:41;;;;;;;13.25;7.40;;;;;;;;;;5071613;28;20235;-73
2024/03/19 10:10:07;;;;;;;12.02;7.43;;;;;;;;;;5070236;28;20200;-73
2024/03/19 10:12:33;;;;;;;12.30;7.13;;;;;;;;;;5070906;28;20196;-72
2024/03/19 10:15:05;;;;;;;11.45;7.28;;;;;;;;;;5070521;28;20213;-72
2024/03/19 10:17:30;;;;;;;14.05;6.72;;;;;;;;;;5071148;28;20250;-73
2024/03/19 10:19:56;;;;;;;13.50;6.47;;;;;;;;;;5070533;28;20212;-73
2024/03/19 10:22:21;;;;;;;10.40;6.22;;;;;;;;;;5054925;28;20707;-72
2024/03/19 10:24:47;;;;;;;9.38;5.43;;;;;;;;;;5058593;28;20272;-73
2024/03/19 10:27:16;;;;;;;9.93;5.53;;;;;;;;;;5068042;28;20193;-73
2024/03/19 10:29:45;;;;;;;10.60;5.60;;;;;;;;;;5069525;28;20305;-73
2024/03/19 10:32:11;;;;;;;9.93;6.22;;;;;;;;;;5056141;28;21370;-73
2024/03/19 10:34:37;;;;;;;12.65;4.95;;;;;;;;;;5070190;28;20296;-73
2024/03/19 10:37:04;;;;;;;6.45;3.85;;;;;;;;;;5055075;28;20237;-72
2024/03/19 10:39:31;;;;;;;5.72;3.70;;;;;;;;;;5069151;28;20609;-72
2024/03/19 10:41:59;;;;;;;9.40;4.15;;;;;;;;;;5070009;28;20197;-71
2024/03/19 10:44:26;;;;;;;6.07;3.75;;;;;;;;;;5066414;28;20189;-73
2024/03/19 10:46:52;;;;;;;6.65;2.78;;;;;;;;;;5056072;28;20655;-72
2024/03/19 10:49:23;;;;;;;8.25;4.07;;;;;;;;;;5070073;28;20196;-71
2024/03/19 10:51:58;;;;;;;5.78;3.33;;;;;;;;;;5067601;28;20668;-71
2024/03/19 10:54:26;;;;;;;6.78;3.25;;;;;;;;;;5070801;28;20231;-72
2024/03/19 10:56:52;;;;;;;7.45;3.88;;;;;;;;;;5061966;28;20180;-72
2024/03/19 10:59:18;;;;;;;6.43;3.55;;;;;;;;;;5068928;28;20238;-72
2024/03/19 11:01:47;;;;;;;8.52;3.88;;;;;;;;;;5047060;28;20177;-72
2024/03/19 11:04:14;;;;;;;7.82;3.70;;;;;;;;;;5067958;28;20191;-71
2024/03/19 11:06:40;;;;;;;7.35;3.78;;;;;;;;;;5065475;28;20276;-72
2024/03/19 11:09:17;;;;;;;5.82;3.83;;;;;;;;;;5056458;28;20181;-72
2024/03/19 11:11:43;;;;;;;5.93;4.03;;;;;;;;;;5067008;28;20238;-72
2024/03/19 11:14:16;;;;;;;5.63;3.28;;;;;;;;;;5056384;28;20204;-73
2024/03/19 11:16:42;;;;;;;7.90;3.60;;;;;;;;;;5066339;28;20185;-73
2024/03/19 11:19:22;;;;;;;4.88;2.90;;;;;;;;;;5065830;28;20208;-73
2024/03/19 11:21:52;;;;;;;6.50;3.00;;;;;;;;;;5064879;28;20271;-72
2024/03/19 11:24:29;;;;;;;9.43;3.55;;;;;;;;;;5058987;28;20178;-72
2024/03/19 11:26:59;;;;;;;5.85;3.72;;;;;;;;;;5059312;28;20259;-72
2024/03/19 11:29:29;;;;;;;7.53;4.03;;;;;;;;;;5062782;28;20208;-72
2024/03/19 11:32:01;;;;;;;8.73;3.95;;;;;;;;;;5059186;28;20272;-72
2024/03/19 11:34:28;;;;;;;7.03;3.75;;;;;;;;;;5046935;28;20213;-72
2024/03/19 11:36:54;;;;;;;6.13;3.35;;;;;;;;;;5066549;28;20224;-72
2024/03/19 11:39:21;;;;;;;6.55;3.22;;;;;;;;;;5067504;28;20262;-72
2024/03/19 11:41:47;;;;;;;5.68;3.00;;;;;;;;;;5061231;28;20183;-72
2024/03/19 11:44:21;;;;;;;6.80;2.55;;;;;;;;;;5067455;28;20184;-73
2024/03/19 11:46:50;;;;;;;4.57;2.70;;;;;;;;;;5063140;28;20192;-72
2024/03/19 11:49:29;;;;;;;7.18;3.28;;;;;;;;;;5067934;28;20199;-73
2024/03/19 11:52:04;;;;;;;7.07;3.75;;;;;;;;;;5067601;28;20608;-72
2024/03/19 11:54:40;;;;;;;4.65;2.90;;;;;;;;;;5068186;28;20235;-72
2024/03/19 11:57:06;;;;;;;8.38;3.25;;;;;;;;;;5061819;28;20650;-72
2024/03/19 11:59:31;;;;;;;5.45;2.70;;;;;;;;;;5069337;28;20184;-72
2024/03/19 12:01:57;;;;;;;5.47;2.60;;;;;;;;;;5060976;28;20181;-72
2024/03/19 12:04:24;;;;;;;3.92;2.13;;;;;;;;;;5068298;28;20196;-73
2024/03/19 12:06:51;;;;;;;3.97;1.80;;;;;;;;;;5065221;28;20191;-72
2024/03/19 12:09:17;;;;;;;3.22;1.70;;;;;;;;;;5065462;28;20265;-72
2024/03/19 12:11:44;;;;;;;4.63;1.88;;;;;;;;;;5065878;28;20180;-73
2024/03/19 12:14:16;;;;;;;3.45;1.95;;;;;;;;;;5065651;28;20714;-73
2024/03/19 12:16:43;;;;;;;5.20;1.90;;;;;;;;;;5055325;28;20185;-72
2024/03/19 12:19:13;;;;;;;6.63;2.22;;;;;;;;;;5059452;28;20295;-72
2024/03/19 12:21:43;;;;;;;4.47;2.08;;;;;;;;;;5062117;28;20198;-73
2024/03/19 12:24:10;;;;;;;7.22;2.28;;;;;;;;;;5068638;28;20180;-73
2024/03/19 12:26:37;;;;;;;3.20;2.00;;;;;;;;;;5066094;28;20220;-73
2024/03/19 12:29:03;;;;;;;3.30;1.98;;;;;;;;;;5067155;28;20180;-73
2024/03/19 12:31:35;;;;;;;4.40;1.90;;;;;;;;;;5066762;28;20196;-73
2024/03/19 12:34:16;;;;;;;3.88;2.25;;;;;;;;;;5067584;28;20216;-72
2024/03/19 12:36:43;;;;;;;7.85;2.10;;;;;;;;;;5066299;28;20243;-73
2024/03/19 12:39:12;;;;;;;3.70;1.77;;;;;;;;;;5051393;28;20564;-72
2024/03/19 12:41:37;;;;;;;4.13;1.42;;;;;;;;;;5063967;28;20573;-72
2024/03/19 12:44:03;;;;;;;2.97;1.30;;;;;;;;;;5047945;28;20208;-72
2024/03/19 12:46:28;;;;;;;2.63;1.30;;;;;;;;;;5066352;28;20188;-71
2024/03/19 12:48:55;;;;;;;4.32;1.20;;;;;;;;;;5056485;28;20213;-72
2024/03/19 12:51:20;;;;;;;3.72;1.40;;;;;;;;;;5057752;28;20234;-72
2024/03/19 12:53:46;;;;;;;2.58;1.63;;;;;;;;;;5069071;28;20184;-71
2024/03/19 12:56:11;;;;;;;4.18;1.73;;;;;;;;;;5070478;28;20227;-71
2024/03/19 12:58:37;;;;;;;3.10;1.70;;;;;;;;;;5073721;28;20181;-73
2024/03/19 13:01:03;;;;;;;3.47;1.77;;;;;;;;;;5071476;28;20185;-73
2024/03/19 13:03:28;;;;;;;5.13;2.67;;;;;;;;;;5070765;28;20192;-72
2024/03/19 13:05:53;;;;;;;4.30;2.00;;;;;;;;;;5064730;28;20188;-72
2024/03/19 13:08:19;;;;;;;4.25;2.08;;;;;;;;;;5062450;28;20197;-72
2024/03/19 13:10:45;;;;;;;3.85;2.40;;;;;;;;;;5068906;28;20176;-73
2024/03/19 13:13:10;;;;;;;5.43;2.13;;;;;;;;;;5066944;28;20197;-73
2024/03/19 13:15:35;;;;;;;4.57;2.50;;;;;;;;;;5069905;28;20258;-72
2024/03/19 13:18:01;;;;;;;5.63;2.63;;;;;;;;;;5066430;28;20324;-71
2024/03/19 13:20:26;;;;;;;5.13;2.30;;;;;;;;;;5065011;28;20188;-71
2024/03/19 13:22:52;;;;;;;5.13;2.40;;;;;;;;;;5068550;28;20643;-71
2024/03/19 13:25:17;;;;;;;7.43;2.10;;;;;;;;;;5064439;28;20185;-71
2024/03/19 13:27:43;;;;;;;5.00;2.22;;;;;;;;;;5062507;28;20271;-72
2024/03/19 13:30:09;;;;;;;7.20;2.72;;;;;;;;;;5061634;28;20262;-72
2024/03/19 13:32:34;;;;;;;5.10;2.47;;;;;;;;;;5065608;28;20177;-72
2024/03/19 13:35:00;;;;;;;6.05;2.25;;;;;;;;;;5065258;28;20219;-72
2024/03/19 13:37:26;;;;;;;5.65;2.30;;;;;;;;;;5059916;28;20347;-72
2024/03/19 13:39:51;;;;;;;8.65;2.38;;;;;;;;;;5058308;28;20330;-71
2024/03/19 13:42:17;;;;;;;6.95;3.10;;;;;;;;;;5066991;28;20291;-72
2024/03/19 13:44:43;;;;;;;7.43;2.85;;;;;;;;;;5066322;28;20189;-72
2024/03/19 13:47:08;;;;;;;8.27;2.60;;;;;;;;;;5068694;28;20236;-72
2024/03/19 13:49:34;;;;;;;8.02;2.10;;;;;;;;;;5067419;28;20200;-72
2024/03/19 13:52:00;;;;;;;7.32;2.20;;;;;;;;;;5050754;28;20257;-71
2024/03/19 13:54:28;;;;;;;8.10;2.17;;;;;;;;;;5070959;28;20248;-71
2024/03/19 13:56:53;;;;;;;4.35;1.92;;;;;;;;;;5067615;28;20246;-72
2024/03/19 13:59:19;;;;;;;7.38;2.38;;;;;;;;;;5058634;28;20197;-71
2024/03/19 14:01:46;;;;;;;7.22;2.30;;;;;;;;;;5067109;28;20208;-71
2024/03/19 14:04:12;;;;;;;5.80;2.05;;;;;;;;;;5067472;28;20199;-71
2024/03/19 14:06:38;;;;;;;7.50;2.33;;;;;;;;;;5062229;28;20669;-71
2024/03/19 14:09:05;;;;;;;7.93;2.58;;;;;;;;;;5065685;28;20211;-73
2024/03/19 14:11:33;;;;;;;5.72;2.33;;;;;;;;;;5068920;28;20246;-71
2024/03/19 14:14:00;;;;;;;3.63;2.20;;;;;;;;;;5054861;28;20230;-72
2024/03/19 14:16:25;;;;;;;5.63;2.35;;;;;;;;;;5062093;28;20188;-72
2024/03/19 14:18:51;;;;;;;9.50;2.90;;;;;;;;;;5065593;28;20258;-72
2024/03/19 14:21:16;;;;;;;8.55;2.40;;;;;;;;;;5068438;28;20191;-72